»·PEaware :: DAL320 KBUR-KLAS

DAL320 :: KBUR-KLAS

FLIGHT INFORMATION

Flight Status: Arrived
Operator:
Delta Air Lines
More flights by this operator :: More flights under this callsign
Pilot: Erik K. (18332)
Aircraft: BOEING 737-800
(B738)
More flights by this aircraft type
Origin: KBUR Bob Hope-Burbank
United States
Destination: KLAS McCarran Intl
United States
More flights between these airports :: More routes between these airports
Route: SLAPP1 MISEN KEPEC6
File this flight plan on PilotEdge
Remarks: I-5 RATING
Altitude:
(Current/Filed)
35,000ft
Speed:
(Current/Filed)
320kts
Departed: 11-Oct-18 08:50 AM
Arrived: 11-Oct-18 09:48 AM
Distance/Time
Traveled:
194nm/0:58
Distance/Time
To Go:
Arrived

Flight Plot

Page will automatically refresh every two minutes.

Flight plan parsing failed; only flown route is shown


Map Options




Map Legend


Flown Route
Filed Route
Departure Airport
Arrival Airport
Navaid (VOR, NDB)
Fix

Horizontal Profiles

Position Reports

Time Latitude Longitude Heading Altitude Ground
Speed
11-Oct-18 08:32 34.197190 -118.351923 265 785ft 0kts
11-Oct-18 08:33 34.197190 -118.351923 265 785ft 0kts
11-Oct-18 08:34 34.197190 -118.351923 265 785ft 0kts
11-Oct-18 08:35 34.197190 -118.351922 265 785ft 0kts
11-Oct-18 08:36 34.197190 -118.351922 265 785ft 0kts
11-Oct-18 08:37 34.197190 -118.351922 265 785ft 0kts
11-Oct-18 08:38 34.197190 -118.351922 265 785ft 0kts
11-Oct-18 08:39 34.197190 -118.351922 265 785ft 0kts
11-Oct-18 08:40 34.197190 -118.351922 265 785ft 0kts
11-Oct-18 08:41 34.197190 -118.351922 265 785ft 0kts
11-Oct-18 08:42 34.197190 -118.351922 265 785ft 0kts
11-Oct-18 08:43 34.197190 -118.351922 265 785ft 0kts
11-Oct-18 08:44 34.197190 -118.351922 265 785ft 0kts
11-Oct-18 08:45 34.197155 -118.353095 270 785ft 16kts
11-Oct-18 08:46 34.201202 -118.356032 346 785ft 21kts
11-Oct-18 08:47 34.207251 -118.357686 347 785ft 25kts
11-Oct-18 08:48 34.211090 -118.358729 346 785ft 0kts
11-Oct-18 08:49 34.211090 -118.358729 346 785ft 0kts
11-Oct-18 08:50 34.211124 -118.358740 344 785ft 2kts
11-Oct-18 08:51 34.210734 -118.360015 168 785ft 32kts
11-Oct-18 08:52 34.178556 -118.352898 187 1940ft 175kts
11-Oct-18 08:53 34.132339 -118.394501 221 3819ft 265kts
11-Oct-18 08:54 34.087892 -118.455710 258 4064ft 276kts
11-Oct-18 08:55 34.117364 -118.522641 329 7939ft 263kts
11-Oct-18 08:56 34.178580 -118.512089 27 10629ft 292kts
11-Oct-18 08:57 34.244562 -118.466198 27 12973ft 311kts
11-Oct-18 08:58 34.317668 -118.415116 27 13793ft 336kts
11-Oct-18 08:59 34.384135 -118.368631 25 16211ft 349kts
11-Oct-18 09:00 34.479638 -118.316700 34 18826ft 376kts
11-Oct-18 09:01 34.563945 -118.233048 37 19922ft 433kts
11-Oct-18 09:02 34.640127 -118.153340 47 21332ft 463kts
11-Oct-18 09:03 34.690260 -117.984317 78 23736ft 488kts
11-Oct-18 09:04 34.700687 -117.851881 87 25324ft 501kts
11-Oct-18 09:05 34.708490 -117.683037 88 27413ft 511kts
11-Oct-18 09:06 34.719066 -117.487956 76 30024ft 512kts
11-Oct-18 09:07 34.754594 -117.351363 71 31735ft 513kts
11-Oct-18 09:08 34.798065 -117.189555 72 33552ft 513kts
11-Oct-18 09:09 34.841284 -117.026202 72 34949ft 518kts
11-Oct-18 09:10 34.885915 -116.855902 72 34960ft 543kts
11-Oct-18 09:11 34.940206 -116.686695 54 34759ft 537kts
11-Oct-18 09:12 35.022732 -116.542844 52 32919ft 504kts
11-Oct-18 09:13 35.099391 -116.407452 53 29776ft 491kts
11-Oct-18 09:14 35.189126 -116.292785 45 24951ft 481kts
11-Oct-18 09:15 35.278112 -116.182169 46 22236ft 433kts
11-Oct-18 09:16 35.353965 -116.087102 47 21296ft 359kts
11-Oct-18 09:17 35.418604 -116.005729 47 20375ft 314kts
11-Oct-18 09:18 35.492948 -115.911619 47 18340ft 334kts
11-Oct-18 09:19 35.545742 -115.844646 47 16453ft 329kts
11-Oct-18 09:20 35.607984 -115.765489 47 14177ft 321kts
11-Oct-18 09:21 35.666823 -115.690527 47 12999ft 277kts
11-Oct-18 09:22 35.717101 -115.626355 46 12349ft 262kts
11-Oct-18 09:23 35.772433 -115.574171 11 12993ft 268kts
11-Oct-18 09:24 35.845326 -115.569247 2 13018ft 262kts
11-Oct-18 09:25 35.921588 -115.565342 2 13008ft 288kts
11-Oct-18 09:26 35.985255 -115.518621 61 11768ft 278kts
11-Oct-18 09:27 36.013045 -115.434922 69 10990ft 274kts
11-Oct-18 09:28 36.031039 -115.348803 96 10971ft 256kts
11-Oct-18 09:29 36.024645 -115.269116 97 9632ft 239kts
11-Oct-18 09:30 36.018724 -115.192708 96 8951ft 233kts
11-Oct-18 09:31 36.013476 -115.118215 96 8017ft 242kts
11-Oct-18 09:32 36.008086 -115.036373 95 8017ft 248kts
11-Oct-18 09:33 36.002947 -114.951829 94 8017ft 252kts
11-Oct-18 09:34 35.997721 -114.866139 94 8020ft 252kts
11-Oct-18 09:35 35.992893 -114.789854 94 8009ft 206kts
11-Oct-18 09:36 35.988186 -114.719072 94 8019ft 206kts
11-Oct-18 09:37 35.983535 -114.648930 92 8018ft 206kts
11-Oct-18 09:38 36.017498 -114.602550 4 8022ft 195kts
11-Oct-18 09:39 36.062907 -114.622479 295 8020ft 183kts
11-Oct-18 09:40 36.070521 -114.682300 274 8016ft 171kts
11-Oct-18 09:41 36.074315 -114.734859 270 8019ft 148kts
11-Oct-18 09:42 36.074260 -114.784872 271 6415ft 149kts
11-Oct-18 09:43 36.074189 -114.835300 271 4893ft 143kts
11-Oct-18 09:44 36.074165 -114.883347 271 4910ft 143kts
11-Oct-18 09:45 36.074156 -114.930447 271 4904ft 142kts
11-Oct-18 09:46 36.074225 -114.976705 271 4905ft 142kts
11-Oct-18 09:47 36.074375 -115.021605 271 4905ft 142kts
11-Oct-18 09:48 36.073321 -115.066862 268 4315ft 144kts
11-Oct-18 09:49 36.073605 -115.113029 270 2452ft 146kts
11-Oct-18 09:50 36.073601 -115.141479 269 2189ft 26kts
11-Oct-18 09:51 36.074975 -115.146529 290 2189ft 0kts

Navigation Log

Ident Type
Flight plan parsing failed, navigation log unavailable